sensor_id;sensor_type;location;lat;lon;timestamp;temperature;humidity
15625;DHT22;7912;51.376;6.126;2023-09-19T00:00:47;18.60;99.90
15625;DHT22;7912;51.376;6.126;2023-09-19T00:03:16;18.60;99.90
15625;DHT22;7912;51.376;6.126;2023-09-19T00:05:44;18.60;99.90
15625;DHT22;7912;51.376;6.126;2023-09-19T00:08:13;18.60;99.90
15625;DHT22;7912;51.376;6.126;2023-09-19T00:10:43;18.50;99.90
15625;DHT22;7912;51.376;6.126;2023-09-19T00:13:11;18.50;99.90
15625;DHT22;7912;51.376;6.126;2023-09-19T00:15:44;18.50;99.90
15625;DHT22;7912;51.376;6.126;2023-09-19T00:18:21;18.50;99.90
15625;DHT22;7912;51.376;6.126;2023-09-19T00:20:50;18.50;99.90
15625;DHT22;7912;51.376;6.126;2023-09-19T00:23:19;18.40;99.90
15625;DHT22;7912;51.376;6.126;2023-09-19T00:25:47;18.40;99.90
15625;DHT22;7912;51.376;6.126;2023-09-19T00:28:15;18.40;99.90
15625;DHT22;7912;51.376;6.126;2023-09-19T00:31:04;18.40;99.90
15625;DHT22;7912;51.376;6.126;2023-09-19T00:33:35;18.40;99.90
15625;DHT22;7912;51.376;6.126;2023-09-19T00:36:03;18.40;99.90
15625;DHT22;7912;51.376;6.126;2023-09-19T00:38:32;18.40;99.90
15625;DHT22;7912;51.376;6.126;2023-09-19T00:41:00;18.30;99.90
15625;DHT22;7912;51.376;6.126;2023-09-19T00:43:27;18.30;99.90
15625;DHT22;7912;51.376;6.126;2023-09-19T00:45:56;18.30;99.90
15625;DHT22;7912;51.376;6.126;2023-09-19T00:48:26;18.30;99.90
15625;DHT22;7912;51.376;6.126;2023-09-19T00:50:59;18.20;99.90
15625;DHT22;7912;51.376;6.126;2023-09-19T00:53:32;18.20;99.90
15625;DHT22;7912;51.376;6.126;2023-09-19T00:56:03;18.20;99.90
15625;DHT22;7912;51.376;6.126;2023-09-19T00:58:34;18.20;99.90
15625;DHT22;7912;51.376;6.126;2023-09-19T01:01:04;18.10;99.90
15625;DHT22;7912;51.376;6.126;2023-09-19T01:03:36;18.10;99.90
15625;DHT22;7912;51.376;6.126;2023-09-19T01:06:04;18.10;99.90
15625;DHT22;7912;51.376;6.126;2023-09-19T01:08:31;18.10;99.90
15625;DHT22;7912;51.376;6.126;2023-09-19T01:13:57;18.10;99.90
15625;DHT22;7912;51.376;6.126;2023-09-19T01:16:32;18.10;99.90
15625;DHT22;7912;51.376;6.126;2023-09-19T01:22:16;18.00;99.90
15625;DHT22;7912;51.376;6.126;2023-09-19T01:31:09;17.90;99.90
15625;DHT22;7912;51.376;6.126;2023-09-19T01:34:02;17.90;99.90
15625;DHT22;7912;51.376;6.126;2023-09-19T01:36:36;17.90;99.90
15625;DHT22;7912;51.376;6.126;2023-09-19T01:39:07;17.90;99.90
15625;DHT22;7912;51.376;6.126;2023-09-19T01:44:40;17.80;99.90
15625;DHT22;7912;51.376;6.126;2023-09-19T01:47:21;17.80;99.90
15625;DHT22;7912;51.376;6.126;2023-09-19T01:50:12;17.80;99.90
15625;DHT22;7912;51.376;6.126;2023-09-19T01:53:10;17.80;99.90
15625;DHT22;7912;51.376;6.126;2023-09-19T01:55:48;17.80;99.90
15625;DHT22;7912;51.376;6.126;2023-09-19T01:58:26;17.80;99.90
15625;DHT22;7912;51.376;6.126;2023-09-19T02:01:00;17.80;99.90
15625;DHT22;7912;51.376;6.126;2023-09-19T02:03:29;17.80;99.90
15625;DHT22;7912;51.376;6.126;2023-09-19T02:06:00;17.70;99.90
15625;DHT22;7912;51.376;6.126;2023-09-19T02:08:31;17.70;99.90
15625;DHT22;7912;51.376;6.126;2023-09-19T02:11:00;17.70;99.90
15625;DHT22;7912;51.376;6.126;2023-09-19T02:13:30;17.70;99.90
15625;DHT22;7912;51.376;6.126;2023-09-19T02:15:59;17.70;99.90
15625;DHT22;7912;51.376;6.126;2023-09-19T02:18:27;17.70;99.90
15625;DHT22;7912;51.376;6.126;2023-09-19T02:20:58;17.70;99.90
15625;DHT22;7912;51.376;6.126;2023-09-19T02:23:25;17.70;99.90
15625;DHT22;7912;51.376;6.126;2023-09-19T02:25:53;17.70;99.90
15625;DHT22;7912;51.376;6.126;2023-09-19T02:28:22;17.70;99.90
15625;DHT22;7912;51.376;6.126;2023-09-19T02:30:50;17.70;99.90
15625;DHT22;7912;51.376;6.126;2023-09-19T02:33:17;17.70;99.90
15625;DHT22;7912;51.376;6.126;2023-09-19T02:35:48;17.60;99.90
15625;DHT22;7912;51.376;6.126;2023-09-19T02:38:15;17.60;99.90
15625;DHT22;7912;51.376;6.126;2023-09-19T02:40:47;17.60;99.90
15625;DHT22;7912;51.376;6.126;2023-09-19T02:43:15;17.60;99.90
15625;DHT22;7912;51.376;6.126;2023-09-19T02:45:44;17.60;99.90
15625;DHT22;7912;51.376;6.126;2023-09-19T02:48:12;17.60;99.90
15625;DHT22;7912;51.376;6.126;2023-09-19T02:50:39;17.60;99.90
15625;DHT22;7912;51.376;6.126;2023-09-19T02:53:07;17.60;99.90
15625;DHT22;7912;51.376;6.126;2023-09-19T02:55:35;17.60;99.90
15625;DHT22;7912;51.376;6.126;2023-09-19T02:58:06;17.60;99.90
15625;DHT22;7912;51.376;6.126;2023-09-19T03:00:43;17.50;99.90
15625;DHT22;7912;51.376;6.126;2023-09-19T03:03:15;17.50;99.90
15625;DHT22;7912;51.376;6.126;2023-09-19T03:05:46;17.50;99.90
15625;DHT22;7912;51.376;6.126;2023-09-19T03:08:15;17.50;99.90
15625;DHT22;7912;51.376;6.126;2023-09-19T03:10:46;17.50;99.90
15625;DHT22;7912;51.376;6.126;2023-09-19T03:13:15;17.50;99.90
15625;DHT22;7912;51.376;6.126;2023-09-19T03:15:44;17.50;99.90
15625;DHT22;7912;51.376;6.126;2023-09-19T03:18:14;17.40;99.90
15625;DHT22;7912;51.376;6.126;2023-09-19T03:20:53;17.40;99.90
15625;DHT22;7912;51.376;6.126;2023-09-19T03:23:22;17.40;99.90
15625;DHT22;7912;51.376;6.126;2023-09-19T03:25:50;17.40;99.90
15625;DHT22;7912;51.376;6.126;2023-09-19T03:28:19;17.40;99.90
15625;DHT22;7912;51.376;6.126;2023-09-19T03:31:02;17.40;99.90
15625;DHT22;7912;51.376;6.126;2023-09-19T03:33:31;17.40;99.90
15625;DHT22;7912;51.376;6.126;2023-09-19T03:36:00;17.40;99.90
15625;DHT22;7912;51.376;6.126;2023-09-19T03:38:32;17.30;99.90
15625;DHT22;7912;51.376;6.126;2023-09-19T03:41:03;17.30;99.90
15625;DHT22;7912;51.376;6.126;2023-09-19T03:43:33;17.30;99.90
15625;DHT22;7912;51.376;6.126;2023-09-19T03:46:04;17.30;99.90
15625;DHT22;7912;51.376;6.126;2023-09-19T03:48:32;17.30;99.90
15625;DHT22;7912;51.376;6.126;2023-09-19T03:51:00;17.30;99.90
15625;DHT22;7912;51.376;6.126;2023-09-19T03:53:28;17.30;99.90
15625;DHT22;7912;51.376;6.126;2023-09-19T03:55:55;17.30;99.90
15625;DHT22;7912;51.376;6.126;2023-09-19T03:58:23;17.30;99.90
15625;DHT22;7912;51.376;6.126;2023-09-19T04:00:50;17.30;99.90
15625;DHT22;7912;51.376;6.126;2023-09-19T04:03:18;17.30;99.90
15625;DHT22;7912;51.376;6.126;2023-09-19T04:05:47;17.30;99.90
15625;DHT22;7912;51.376;6.126;2023-09-19T04:08:15;17.30;99.90
15625;DHT22;7912;51.376;6.126;2023-09-19T04:10:43;17.30;99.90
15625;DHT22;7912;51.376;6.126;2023-09-19T04:13:11;17.30;99.90
15625;DHT22;7912;51.376;6.126;2023-09-19T04:15:38;17.30;99.90
15625;DHT22;7912;51.376;6.126;2023-09-19T04:18:07;17.40;99.90
15625;DHT22;7912;51.376;6.126;2023-09-19T04:20:34;17.40;99.90
15625;DHT22;7912;51.376;6.126;2023-09-19T04:23:02;17.40;99.90
15625;DHT22;7912;51.376;6.126;2023-09-19T04:25:32;17.40;99.90
15625;DHT22;7912;51.376;6.126;2023-09-19T04:28:00;17.40;99.90
15625;DHT22;7912;51.376;6.126;2023-09-19T04:30:27;17.40;99.90
15625;DHT22;7912;51.376;6.126;2023-09-19T04:32:55;17.50;99.90
15625;DHT22;7912;51.376;6.126;2023-09-19T04:35:23;17.50;99.90
15625;DHT22;7912;51.376;6.126;2023-09-19T04:37:50;17.50;99.90
15625;DHT22;7912;51.376;6.126;2023-09-19T04:40:18;17.50;99.90
15625;DHT22;7912;51.376;6.126;2023-09-19T04:42:53;17.50;99.90
15625;DHT22;7912;51.376;6.126;2023-09-19T04:45:28;17.50;99.90
15625;DHT22;7912;51.376;6.126;2023-09-19T04:47:56;17.60;99.90
15625;DHT22;7912;51.376;6.126;2023-09-19T04:50:23;17.60;99.90
15625;DHT22;7912;51.376;6.126;2023-09-19T04:52:55;17.60;99.90
15625;DHT22;7912;51.376;6.126;2023-09-19T04:55:22;17.60;99.90
15625;DHT22;7912;51.376;6.126;2023-09-19T04:57:51;17.60;99.90
15625;DHT22;7912;51.376;6.126;2023-09-19T05:00:21;17.60;99.90
15625;DHT22;7912;51.376;6.126;2023-09-19T05:02:55;17.60;99.90
15625;DHT22;7912;51.376;6.126;2023-09-19T05:05:26;17.60;99.90
15625;DHT22;7912;51.376;6.126;2023-09-19T05:07:53;17.60;99.90
15625;DHT22;7912;51.376;6.126;2023-09-19T05:10:22;17.60;99.90
15625;DHT22;7912;51.376;6.126;2023-09-19T05:12:53;17.60;99.90
15625;DHT22;7912;51.376;6.126;2023-09-19T05:15:23;17.70;99.90
15625;DHT22;7912;51.376;6.126;2023-09-19T05:17:52;17.70;99.90
15625;DHT22;7912;51.376;6.126;2023-09-19T05:20:24;17.70;99.90
15625;DHT22;7912;51.376;6.126;2023-09-19T05:23:01;17.70;99.90
15625;DHT22;7912;51.376;6.126;2023-09-19T05:25:38;17.80;99.90
15625;DHT22;7912;51.376;6.126;2023-09-19T05:28:08;17.80;99.90
15625;DHT22;7912;51.376;6.126;2023-09-19T05:30:38;17.80;99.90
15625;DHT22;7912;51.376;6.126;2023-09-19T05:33:06;17.90;99.90
15625;DHT22;7912;51.376;6.126;2023-09-19T05:35:35;17.90;99.90
15625;DHT22;7912;51.376;6.126;2023-09-19T05:38:09;17.90;99.90
15625;DHT22;7912;51.376;6.126;2023-09-19T05:40:37;18.00;99.90
15625;DHT22;7912;51.376;6.126;2023-09-19T05:43:06;18.00;99.90
15625;DHT22;7912;51.376;6.126;2023-09-19T05:45:38;18.00;99.90
15625;DHT22;7912;51.376;6.126;2023-09-19T05:48:12;18.00;99.90
15625;DHT22;7912;51.376;6.126;2023-09-19T05:50:43;18.00;99.90
15625;DHT22;7912;51.376;6.126;2023-09-19T05:53:16;18.10;99.90
15625;DHT22;7912;51.376;6.126;2023-09-19T05:55:46;18.10;99.90
15625;DHT22;7912;51.376;6.126;2023-09-19T05:58:14;18.10;99.90
15625;DHT22;7912;51.376;6.126;2023-09-19T06:00:44;18.10;99.90
15625;DHT22;7912;51.376;6.126;2023-09-19T06:03:14;18.20;99.90
15625;DHT22;7912;51.376;6.126;2023-09-19T06:05:42;18.20;99.90
15625;DHT22;7912;51.376;6.126;2023-09-19T06:08:09;18.20;99.90
15625;DHT22;7912;51.376;6.126;2023-09-19T06:10:37;18.20;99.90
15625;DHT22;7912;51.376;6.126;2023-09-19T06:16:30;18.20;99.90
15625;DHT22;7912;51.376;6.126;2023-09-19T06:19:01;18.20;99.90
15625;DHT22;7912;51.376;6.126;2023-09-19T06:21:31;18.20;99.90
15625;DHT22;7912;51.376;6.126;2023-09-19T06:23:59;18.30;99.90
15625;DHT22;7912;51.376;6.126;2023-09-19T06:26:29;18.30;99.90
15625;DHT22;7912;51.376;6.126;2023-09-19T06:28:58;18.30;99.90
15625;DHT22;7912;51.376;6.126;2023-09-19T06:31:30;18.30;99.90
15625;DHT22;7912;51.376;6.126;2023-09-19T06:34:03;18.30;99.90
15625;DHT22;7912;51.376;6.126;2023-09-19T06:36:31;18.30;99.90
15625;DHT22;7912;51.376;6.126;2023-09-19T06:39:00;18.40;99.90
15625;DHT22;7912;51.376;6.126;2023-09-19T06:41:31;18.40;99.90
15625;DHT22;7912;51.376;6.126;2023-09-19T06:43:58;18.40;99.90
15625;DHT22;7912;51.376;6.126;2023-09-19T06:46:29;18.50;99.90
15625;DHT22;7912;51.376;6.126;2023-09-19T06:49:00;18.50;99.90
15625;DHT22;7912;51.376;6.126;2023-09-19T06:51:33;18.50;99.90
15625;DHT22;7912;51.376;6.126;2023-09-19T06:54:09;18.60;99.90
15625;DHT22;7912;51.376;6.126;2023-09-19T06:56:37;18.60;99.90
15625;DHT22;7912;51.376;6.126;2023-09-19T06:59:04;18.60;99.90
15625;DHT22;7912;51.376;6.126;2023-09-19T07:01:34;18.70;99.90
15625;DHT22;7912;51.376;6.126;2023-09-19T07:04:05;18.70;99.90
15625;DHT22;7912;51.376;6.126;2023-09-19T07:06:36;18.80;99.90
15625;DHT22;7912;51.376;6.126;2023-09-19T07:09:05;18.80;99.90
15625;DHT22;7912;51.376;6.126;2023-09-19T07:11:34;18.90;99.90
15625;DHT22;7912;51.376;6.126;2023-09-19T07:14:02;18.90;99.90
15625;DHT22;7912;51.376;6.126;2023-09-19T07:16:31;18.90;99.90
15625;DHT22;7912;51.376;6.126;2023-09-19T07:18:59;19.00;99.90
15625;DHT22;7912;51.376;6.126;2023-09-19T07:21:27;19.00;99.90
15625;DHT22;7912;51.376;6.126;2023-09-19T07:23:56;19.10;99.90
15625;DHT22;7912;51.376;6.126;2023-09-19T07:26:38;19.10;99.90
15625;DHT22;7912;51.376;6.126;2023-09-19T07:29:10;19.10;99.90
15625;DHT22;7912;51.376;6.126;2023-09-19T07:31:43;19.20;99.90
15625;DHT22;7912;51.376;6.126;2023-09-19T07:34:11;19.20;99.90
15625;DHT22;7912;51.376;6.126;2023-09-19T07:36:43;19.20;99.90
15625;DHT22;7912;51.376;6.126;2023-09-19T07:39:18;19.20;99.90
15625;DHT22;7912;51.376;6.126;2023-09-19T07:41:49;19.30;99.90
15625;DHT22;7912;51.376;6.126;2023-09-19T07:44:17;19.30;99.90
15625;DHT22;7912;51.376;6.126;2023-09-19T07:46:49;19.30;99.90
15625;DHT22;7912;51.376;6.126;2023-09-19T07:49:18;19.40;99.90
15625;DHT22;7912;51.376;6.126;2023-09-19T07:51:46;19.40;99.90
15625;DHT22;7912;51.376;6.126;2023-09-19T07:54:19;19.50;99.90
15625;DHT22;7912;51.376;6.126;2023-09-19T07:56:48;19.50;99.90
15625;DHT22;7912;51.376;6.126;2023-09-19T07:59:16;19.60;99.90
15625;DHT22;7912;51.376;6.126;2023-09-19T08:01:45;19.70;99.90
15625;DHT22;7912;51.376;6.126;2023-09-19T08:04:15;19.80;99.90
15625;DHT22;7912;51.376;6.126;2023-09-19T08:06:46;19.80;99.90
15625;DHT22;7912;51.376;6.126;2023-09-19T08:09:14;19.80;99.90
15625;DHT22;7912;51.376;6.126;2023-09-19T08:11:55;19.90;99.90
15625;DHT22;7912;51.376;6.126;2023-09-19T08:14:28;19.90;99.90
15625;DHT22;7912;51.376;6.126;2023-09-19T08:17:00;19.90;99.90
15625;DHT22;7912;51.376;6.126;2023-09-19T08:19:28;19.90;99.90
15625;DHT22;7912;51.376;6.126;2023-09-19T08:21:59;20.00;99.90
15625;DHT22;7912;51.376;6.126;2023-09-19T08:24:33;20.00;99.90
15625;DHT22;7912;51.376;6.126;2023-09-19T08:27:01;20.10;99.90
15625;DHT22;7912;51.376;6.126;2023-09-19T08:29:31;20.10;99.90
15625;DHT22;7912;51.376;6.126;2023-09-19T08:32:02;20.20;99.90
15625;DHT22;7912;51.376;6.126;2023-09-19T08:34:33;20.30;99.90
15625;DHT22;7912;51.376;6.126;2023-09-19T08:37:06;20.30;99.90
15625;DHT22;7912;51.376;6.126;2023-09-19T08:39:34;20.40;99.90
15625;DHT22;7912;51.376;6.126;2023-09-19T08:42:03;20.40;99.90
15625;DHT22;7912;51.376;6.126;2023-09-19T08:44:36;20.50;99.90
15625;DHT22;7912;51.376;6.126;2023-09-19T08:47:15;20.50;99.90
15625;DHT22;7912;51.376;6.126;2023-09-19T08:50:23;20.60;99.90
15625;DHT22;7912;51.376;6.126;2023-09-19T08:52:55;20.60;99.90
15625;DHT22;7912;51.376;6.126;2023-09-19T08:55:30;20.70;99.90
15625;DHT22;7912;51.376;6.126;2023-09-19T08:58:04;20.70;99.90
15625;DHT22;7912;51.376;6.126;2023-09-19T09:00:36;20.70;99.90
15625;DHT22;7912;51.376;6.126;2023-09-19T09:03:05;20.80;99.90
15625;DHT22;7912;51.376;6.126;2023-09-19T09:05:37;20.80;99.90
15625;DHT22;7912;51.376;6.126;2023-09-19T09:08:09;20.80;99.90
15625;DHT22;7912;51.376;6.126;2023-09-19T09:10:40;20.90;99.90
15625;DHT22;7912;51.376;6.126;2023-09-19T09:13:10;20.90;99.90
15625;DHT22;7912;51.376;6.126;2023-09-19T09:15:47;20.90;99.90
15625;DHT22;7912;51.376;6.126;2023-09-19T09:18:21;21.00;99.90
15625;DHT22;7912;51.376;6.126;2023-09-19T09:20:50;21.00;99.90
15625;DHT22;7912;51.376;6.126;2023-09-19T09:23:17;21.10;99.90
15625;DHT22;7912;51.376;6.126;2023-09-19T09:25:50;21.10;99.90
15625;DHT22;7912;51.376;6.126;2023-09-19T09:28:28;21.10;99.90
15625;DHT22;7912;51.376;6.126;2023-09-19T09:30:58;21.10;99.90
15625;DHT22;7912;51.376;6.126;2023-09-19T09:33:30;21.20;99.90
15625;DHT22;7912;51.376;6.126;2023-09-19T09:35:59;21.20;99.90
15625;DHT22;7912;51.376;6.126;2023-09-19T09:38:29;21.30;99.90
15625;DHT22;7912;51.376;6.126;2023-09-19T09:41:16;21.30;99.90
15625;DHT22;7912;51.376;6.126;2023-09-19T09:43:56;21.40;99.90
15625;DHT22;7912;51.376;6.126;2023-09-19T09:46:45;21.60;99.90
15625;DHT22;7912;51.376;6.126;2023-09-19T09:49:26;21.70;99.90
15625;DHT22;7912;51.376;6.126;2023-09-19T09:52:05;21.80;99.90
15625;DHT22;7912;51.376;6.126;2023-09-19T09:54:38;22.00;99.90
15625;DHT22;7912;51.376;6.126;2023-09-19T09:57:35;22.10;99.90
15625;DHT22;7912;51.376;6.126;2023-09-19T10:00:07;22.30;99.90
15625;DHT22;7912;51.376;6.126;2023-09-19T10:02:40;22.50;99.90
15625;DHT22;7912;51.376;6.126;2023-09-19T10:05:16;22.70;99.90
15625;DHT22;7912;51.376;6.126;2023-09-19T10:07:55;22.80;99.90
15625;DHT22;7912;51.376;6.126;2023-09-19T10:10:36;22.90;99.90
15625;DHT22;7912;51.376;6.126;2023-09-19T10:13:13;23.00;99.40
15625;DHT22;7912;51.376;6.126;2023-09-19T10:15:48;23.10;99.10
15625;DHT22;7912;51.376;6.126;2023-09-19T10:18:26;23.10;99.30
15625;DHT22;7912;51.376;6.126;2023-09-19T10:21:02;23.10;99.00
15625;DHT22;7912;51.376;6.126;2023-09-19T10:23:38;23.10;98.60
15625;DHT22;7912;51.376;6.126;2023-09-19T10:26:17;23.10;98.90
15625;DHT22;7912;51.376;6.126;2023-09-19T10:28:48;23.20;98.90
15625;DHT22;7912;51.376;6.126;2023-09-19T10:31:31;23.20;99.40
15625;DHT22;7912;51.376;6.126;2023-09-19T10:34:06;23.30;99.00
15625;DHT22;7912;51.376;6.126;2023-09-19T10:36:52;23.50;98.00
15625;DHT22;7912;51.376;6.126;2023-09-19T10:40:08;23.60;97.40
15625;DHT22;7912;51.376;6.126;2023-09-19T10:42:45;23.70;97.50
15625;DHT22;7912;51.376;6.126;2023-09-19T10:45:17;23.70;97.30
15625;DHT22;7912;51.376;6.126;2023-09-19T10:47:51;23.80;97.30
15625;DHT22;7912;51.376;6.126;2023-09-19T10:50:24;23.80;96.70
15625;DHT22;7912;51.376;6.126;2023-09-19T10:52:55;23.80;97.00
15625;DHT22;7912;51.376;6.126;2023-09-19T10:55:28;23.80;97.00
15625;DHT22;7912;51.376;6.126;2023-09-19T10:58:01;23.80;96.90
15625;DHT22;7912;51.376;6.126;2023-09-19T11:01:05;23.90;96.90
15625;DHT22;7912;51.376;6.126;2023-09-19T11:03:35;24.00;96.30
15625;DHT22;7912;51.376;6.126;2023-09-19T11:06:23;24.00;95.90
15625;DHT22;7912;51.376;6.126;2023-09-19T11:08:55;24.10;95.30
15625;DHT22;7912;51.376;6.126;2023-09-19T11:11:50;24.10;95.60
15625;DHT22;7912;51.376;6.126;2023-09-19T11:30:57;24.90;93.30
15625;DHT22;7912;51.376;6.126;2023-09-19T11:33:30;25.00;93.00
15625;DHT22;7912;51.376;6.126;2023-09-19T11:36:11;25.00;92.40
15625;DHT22;7912;51.376;6.126;2023-09-19T11:39:01;25.00;92.30
15625;DHT22;7912;51.376;6.126;2023-09-19T11:41:40;25.00;92.00
15625;DHT22;7912;51.376;6.126;2023-09-19T11:46:54;25.10;92.00
15625;DHT22;7912;51.376;6.126;2023-09-19T11:49:29;25.10;92.30
15625;DHT22;7912;51.376;6.126;2023-09-19T11:52:02;25.20;91.90
15625;DHT22;7912;51.376;6.126;2023-09-19T11:54:44;25.20;91.90
15625;DHT22;7912;51.376;6.126;2023-09-19T11:57:23;25.30;92.10
15625;DHT22;7912;51.376;6.126;2023-09-19T11:59:55;25.40;92.40
15625;DHT22;7912;51.376;6.126;2023-09-19T12:02:39;25.50;92.00
15625;DHT22;7912;51.376;6.126;2023-09-19T12:05:09;25.60;90.80
15625;DHT22;7912;51.376;6.126;2023-09-19T12:07:46;25.70;90.90
15625;DHT22;7912;51.376;6.126;2023-09-19T12:10:20;25.80;90.00
15625;DHT22;7912;51.376;6.126;2023-09-19T12:12:51;25.80;89.30
15625;DHT22;7912;51.376;6.126;2023-09-19T12:15:24;25.80;89.40
15625;DHT22;7912;51.376;6.126;2023-09-19T12:18:02;25.80;88.20
15625;DHT22;7912;51.376;6.126;2023-09-19T12:20:44;25.80;89.60
15625;DHT22;7912;51.376;6.126;2023-09-19T12:23:26;25.80;87.80
15625;DHT22;7912;51.376;6.126;2023-09-19T12:26:02;25.80;89.60
15625;DHT22;7912;51.376;6.126;2023-09-19T12:28:45;25.90;89.30
15625;DHT22;7912;51.376;6.126;2023-09-19T12:31:18;25.90;88.10
15625;DHT22;7912;51.376;6.126;2023-09-19T12:34:22;26.00;88.40
15625;DHT22;7912;51.376;6.126;2023-09-19T12:37:15;26.10;87.00
15625;DHT22;7912;51.376;6.126;2023-09-19T12:40:12;26.10;86.40
15625;DHT22;7912;51.376;6.126;2023-09-19T12:42:52;26.10;86.10
15625;DHT22;7912;51.376;6.126;2023-09-19T12:45:33;26.10;86.40
15625;DHT22;7912;51.376;6.126;2023-09-19T12:48:26;26.10;87.00
15625;DHT22;7912;51.376;6.126;2023-09-19T12:51:13;26.00;87.00
15625;DHT22;7912;51.376;6.126;2023-09-19T12:53:58;25.90;88.30
15625;DHT22;7912;51.376;6.126;2023-09-19T12:56:39;25.90;89.10
15625;DHT22;7912;51.376;6.126;2023-09-19T12:59:27;25.90;88.90
15625;DHT22;7912;51.376;6.126;2023-09-19T13:06:39;25.90;87.60
15625;DHT22;7912;51.376;6.126;2023-09-19T13:13:08;25.80;88.10
15625;DHT22;7912;51.376;6.126;2023-09-19T13:16:02;25.70;87.30
15625;DHT22;7912;51.376;6.126;2023-09-19T13:18:51;25.70;87.60
15625;DHT22;7912;51.376;6.126;2023-09-19T13:21:29;25.60;88.90
15625;DHT22;7912;51.376;6.126;2023-09-19T13:24:23;25.50;89.70
15625;DHT22;7912;51.376;6.126;2023-09-19T13:26:57;25.40;89.20
15625;DHT22;7912;51.376;6.126;2023-09-19T13:29:30;25.40;90.00
15625;DHT22;7912;51.376;6.126;2023-09-19T13:32:02;25.30;89.70
15625;DHT22;7912;51.376;6.126;2023-09-19T13:34:36;25.20;90.00
15625;DHT22;7912;51.376;6.126;2023-09-19T13:37:14;25.20;90.10
15625;DHT22;7912;51.376;6.126;2023-09-19T13:39:45;25.10;90.00
15625;DHT22;7912;51.376;6.126;2023-09-19T13:42:38;25.10;90.20
15625;DHT22;7912;51.376;6.126;2023-09-19T13:45:10;25.00;90.30
15625;DHT22;7912;51.376;6.126;2023-09-19T13:47:43;25.00;90.10
15625;DHT22;7912;51.376;6.126;2023-09-19T13:50:14;24.90;90.10
15625;DHT22;7912;51.376;6.126;2023-09-19T13:52:55;24.90;90.20
15625;DHT22;7912;51.376;6.126;2023-09-19T13:55:29;24.90;90.30
15625;DHT22;7912;51.376;6.126;2023-09-19T13:58:14;24.90;90.30
15625;DHT22;7912;51.376;6.126;2023-09-19T14:00:45;24.90;90.50
15625;DHT22;7912;51.376;6.126;2023-09-19T14:03:28;24.90;90.50
15625;DHT22;7912;51.376;6.126;2023-09-19T14:06:02;24.90;90.20
15625;DHT22;7912;51.376;6.126;2023-09-19T14:08:40;24.90;89.80
15625;DHT22;7912;51.376;6.126;2023-09-19T14:11:17;24.90;90.00
15625;DHT22;7912;51.376;6.126;2023-09-19T14:14:06;24.80;89.70
15625;DHT22;7912;51.376;6.126;2023-09-19T14:16:42;24.80;90.00
15625;DHT22;7912;51.376;6.126;2023-09-19T14:19:11;24.70;90.20
15625;DHT22;7912;51.376;6.126;2023-09-19T14:21:51;24.70;90.60
15625;DHT22;7912;51.376;6.126;2023-09-19T14:24:26;24.60;90.50
15625;DHT22;7912;51.376;6.126;2023-09-19T14:27:06;24.60;90.30
15625;DHT22;7912;51.376;6.126;2023-09-19T14:29:36;24.50;90.60
15625;DHT22;7912;51.376;6.126;2023-09-19T14:32:04;24.50;90.50
15625;DHT22;7912;51.376;6.126;2023-09-19T14:34:47;24.40;90.80
15625;DHT22;7912;51.376;6.126;2023-09-19T14:37:15;24.30;90.90
15625;DHT22;7912;51.376;6.126;2023-09-19T14:39:43;24.20;91.10
15625;DHT22;7912;51.376;6.126;2023-09-19T14:42:13;24.20;91.20
15625;DHT22;7912;51.376;6.126;2023-09-19T14:44:50;24.10;91.60
15625;DHT22;7912;51.376;6.126;2023-09-19T14:47:19;24.10;91.70
15625;DHT22;7912;51.376;6.126;2023-09-19T14:50:08;24.00;91.80
15625;DHT22;7912;51.376;6.126;2023-09-19T14:52:51;24.00;92.00
15625;DHT22;7912;51.376;6.126;2023-09-19T14:55:23;24.00;92.10
15625;DHT22;7912;51.376;6.126;2023-09-19T14:58:07;24.00;92.20
15625;DHT22;7912;51.376;6.126;2023-09-19T15:01:34;23.90;92.20
15625;DHT22;7912;51.376;6.126;2023-09-19T15:04:15;23.90;92.40
15625;DHT22;7912;51.376;6.126;2023-09-19T15:06:46;23.90;92.70
15625;DHT22;7912;51.376;6.126;2023-09-19T15:09:22;23.90;92.70
15625;DHT22;7912;51.376;6.126;2023-09-19T15:12:01;24.00;93.10
15625;DHT22;7912;51.376;6.126;2023-09-19T15:14:36;24.10;93.20
15625;DHT22;7912;51.376;6.126;2023-09-19T15:17:24;24.20;92.90
15625;DHT22;7912;51.376;6.126;2023-09-19T15:20:06;24.40;92.80
15625;DHT22;7912;51.376;6.126;2023-09-19T15:22:57;24.40;92.90
15625;DHT22;7912;51.376;6.126;2023-09-19T15:25:28;24.60;92.60
15625;DHT22;7912;51.376;6.126;2023-09-19T15:28:01;24.60;92.40
15625;DHT22;7912;51.376;6.126;2023-09-19T15:30:39;24.60;92.30
15625;DHT22;7912;51.376;6.126;2023-09-19T15:33:33;24.70;92.20
15625;DHT22;7912;51.376;6.126;2023-09-19T15:36:15;24.70;92.10
15625;DHT22;7912;51.376;6.126;2023-09-19T15:42:15;24.60;92.00
15625;DHT22;7912;51.376;6.126;2023-09-19T15:45:05;24.50;92.20
15625;DHT22;7912;51.376;6.126;2023-09-19T15:47:43;24.50;92.10
15625;DHT22;7912;51.376;6.126;2023-09-19T15:50:21;24.50;92.50
15625;DHT22;7912;51.376;6.126;2023-09-19T15:52:59;24.50;92.50
15625;DHT22;7912;51.376;6.126;2023-09-19T15:55:30;24.50;92.50
15625;DHT22;7912;51.376;6.126;2023-09-19T16:01:44;24.60;92.40
15625;DHT22;7912;51.376;6.126;2023-09-19T16:04:38;24.60;92.20
15625;DHT22;7912;51.376;6.126;2023-09-19T16:08:11;24.70;92.00
15625;DHT22;7912;51.376;6.126;2023-09-19T16:11:17;24.70;91.80
15625;DHT22;7912;51.376;6.126;2023-09-19T16:14:03;24.70;91.90
15625;DHT22;7912;51.376;6.126;2023-09-19T16:20:50;24.50;92.20
15625;DHT22;7912;51.376;6.126;2023-09-19T16:23:20;24.40;92.00
15625;DHT22;7912;51.376;6.126;2023-09-19T16:26:06;24.30;92.00
15625;DHT22;7912;51.376;6.126;2023-09-19T16:32:54;24.10;92.20
15625;DHT22;7912;51.376;6.126;2023-09-19T16:35:36;24.00;92.40
15625;DHT22;7912;51.376;6.126;2023-09-19T16:46:15;23.70;93.00
15625;DHT22;7912;51.376;6.126;2023-09-19T16:48:47;23.60;93.10
15625;DHT22;7912;51.376;6.126;2023-09-19T16:51:39;23.50;93.30
15625;DHT22;7912;51.376;6.126;2023-09-19T16:54:29;23.40;93.50
15625;DHT22;7912;51.376;6.126;2023-09-19T16:57:08;23.40;93.70
15625;DHT22;7912;51.376;6.126;2023-09-19T16:59:45;23.30;93.70
15625;DHT22;7912;51.376;6.126;2023-09-19T17:02:20;23.30;93.80
15625;DHT22;7912;51.376;6.126;2023-09-19T17:05:07;23.20;93.80
15625;DHT22;7912;51.376;6.126;2023-09-19T17:11:07;23.10;94.10
15625;DHT22;7912;51.376;6.126;2023-09-19T17:13:42;23.10;94.20
15625;DHT22;7912;51.376;6.126;2023-09-19T17:16:19;23.00;94.30
15625;DHT22;7912;51.376;6.126;2023-09-19T17:18:55;23.00;94.40
15625;DHT22;7912;51.376;6.126;2023-09-19T17:21:34;23.00;94.50
15625;DHT22;7912;51.376;6.126;2023-09-19T17:24:02;22.90;94.60
15625;DHT22;7912;51.376;6.126;2023-09-19T17:26:36;22.90;94.80
15625;DHT22;7912;51.376;6.126;2023-09-19T17:29:24;22.80;94.90
15625;DHT22;7912;51.376;6.126;2023-09-19T17:32:11;22.80;95.00
15625;DHT22;7912;51.376;6.126;2023-09-19T17:34:41;22.80;95.10
15625;DHT22;7912;51.376;6.126;2023-09-19T17:37:10;22.80;95.20
15625;DHT22;7912;51.376;6.126;2023-09-19T17:39:41;22.80;95.30
15625;DHT22;7912;51.376;6.126;2023-09-19T17:42:11;22.70;95.30
15625;DHT22;7912;51.376;6.126;2023-09-19T17:44:49;22.70;95.30